createdAt,value
2017-12-22T00:00:10.683Z,4.00
2017-12-22T00:01:10.684Z,4.00
2017-12-22T00:02:10.682Z,4.00
2017-12-22T00:03:10.673Z,4.00
2017-12-22T00:04:10.678Z,4.00
2017-12-22T00:05:10.667Z,4.00
2017-12-22T00:06:10.667Z,4.00
2017-12-22T00:07:10.668Z,4.00
2017-12-22T00:08:10.652Z,4.00
2017-12-22T00:09:10.651Z,4.00
2017-12-22T00:10:10.645Z,4.00
2017-12-22T00:11:10.641Z,4.00
2017-12-22T00:12:10.636Z,4.00
2017-12-22T00:13:10.636Z,4.00
2017-12-22T00:14:10.628Z,4.00
2017-12-22T00:15:10.651Z,4.00
2017-12-22T00:16:10.618Z,4.00
2017-12-22T00:17:10.617Z,4.00
2017-12-22T00:18:10.614Z,4.00
2017-12-22T00:19:10.673Z,8.00
2017-12-22T00:20:10.607Z,4.00
2017-12-22T00:21:10.602Z,4.00
2017-12-22T00:22:10.599Z,4.00
2017-12-22T00:23:10.593Z,4.00
2017-12-22T00:24:10.781Z,4.00
2017-12-22T00:25:10.584Z,4.00
2017-12-22T00:26:10.581Z,4.00
2017-12-22T00:27:10.579Z,4.00
2017-12-22T00:28:10.574Z,4.00
2017-12-22T00:29:10.571Z,4.00
2017-12-22T00:30:10.596Z,4.00
2017-12-22T00:31:10.562Z,4.00
2017-12-22T00:32:10.559Z,4.00
2017-12-22T00:33:10.554Z,4.00
2017-12-22T00:34:10.569Z,4.00
2017-12-22T00:35:10.544Z,4.00
2017-12-22T00:36:10.542Z,4.00
2017-12-22T00:37:10.543Z,4.00
2017-12-22T00:38:10.532Z,4.00
2017-12-22T00:39:10.544Z,4.00
2017-12-22T00:40:10.528Z,4.00
2017-12-22T00:41:10.527Z,4.00
2017-12-22T00:42:10.523Z,4.00
2017-12-22T00:43:10.513Z,4.00
2017-12-22T00:44:10.509Z,4.00
2017-12-22T00:45:10.528Z,4.00
2017-12-22T00:46:10.501Z,4.00
2017-12-22T00:47:10.498Z,4.00
2017-12-22T00:48:10.495Z,4.00
2017-12-22T00:49:10.490Z,4.00
2017-12-22T00:50:10.487Z,4.00
2017-12-22T00:51:10.487Z,4.00
2017-12-22T00:52:10.480Z,4.00
2017-12-22T00:53:10.475Z,4.00
2017-12-22T00:54:10.540Z,4.00
2017-12-22T00:55:10.467Z,4.00
2017-12-22T00:56:10.461Z,4.00
2017-12-22T00:57:10.464Z,4.00
2017-12-22T00:58:10.456Z,4.00
2017-12-22T00:59:10.449Z,4.00
2017-12-22T01:00:10.447Z,4.00
2017-12-22T01:01:10.463Z,4.00
2017-12-22T01:02:10.436Z,4.00
2017-12-22T01:03:10.433Z,4.00
2017-12-22T01:04:10.430Z,4.00
2017-12-22T01:05:10.425Z,4.00
2017-12-22T01:06:10.422Z,4.00
2017-12-22T01:07:10.426Z,4.00
2017-12-22T01:08:10.415Z,4.00
2017-12-22T01:09:10.410Z,4.00
2017-12-22T01:10:10.404Z,4.00
2017-12-22T01:11:10.411Z,4.00
2017-12-22T01:12:10.398Z,4.00
2017-12-22T01:13:10.404Z,4.00
2017-12-22T01:14:10.389Z,4.00
2017-12-22T01:15:10.386Z,8.00
2017-12-22T01:16:10.386Z,4.00
2017-12-22T01:17:10.378Z,4.00
2017-12-22T01:18:10.373Z,4.00
2017-12-22T01:19:10.369Z,4.00
2017-12-22T01:20:10.368Z,4.00
2017-12-22T01:21:10.362Z,4.00
2017-12-22T01:22:10.357Z,8.00
2017-12-22T01:23:10.356Z,4.00
2017-12-22T01:24:10.351Z,4.00
2017-12-22T01:25:10.345Z,4.00
2017-12-22T01:26:10.341Z,4.00
2017-12-22T01:27:10.335Z,4.00
2017-12-22T01:28:10.332Z,4.00
2017-12-22T01:29:10.329Z,4.00
2017-12-22T01:30:10.326Z,4.00
2017-12-22T01:31:10.322Z,4.00
2017-12-22T01:32:10.319Z,4.00
2017-12-22T01:33:10.314Z,4.00
2017-12-22T01:34:10.310Z,4.00
2017-12-22T01:35:10.307Z,4.00
2017-12-22T01:36:10.300Z,4.00
2017-12-22T01:37:10.422Z,4.00
2017-12-22T01:38:10.292Z,4.00
2017-12-22T01:39:10.309Z,4.00
2017-12-22T01:40:10.284Z,4.00
2017-12-22T01:41:10.278Z,4.00
2017-12-22T01:42:10.275Z,4.00
2017-12-22T01:43:10.271Z,4.00
2017-12-22T01:44:10.268Z,4.00
2017-12-22T01:45:10.263Z,4.00
2017-12-22T01:46:10.259Z,4.00
2017-12-22T01:47:10.256Z,4.00
2017-12-22T01:48:10.253Z,4.00
2017-12-22T01:49:10.246Z,4.00
2017-12-22T01:50:10.241Z,4.00
2017-12-22T01:51:10.241Z,4.00
2017-12-22T01:52:10.233Z,4.00
2017-12-22T01:53:10.232Z,4.00
2017-12-22T01:54:10.223Z,4.00
2017-12-22T01:55:10.226Z,4.00
2017-12-22T01:56:10.217Z,4.00
2017-12-22T01:57:10.215Z,8.00
2017-12-22T01:58:10.210Z,4.00
2017-12-22T01:59:10.205Z,4.00
2017-12-22T02:00:10.201Z,4.00
2017-12-22T02:01:10.195Z,4.00
2017-12-22T02:02:10.190Z,4.00
2017-12-22T02:03:10.188Z,4.00
2017-12-22T02:04:10.185Z,4.00
2017-12-22T02:05:10.180Z,4.00
2017-12-22T02:06:10.174Z,4.00
2017-12-22T02:07:10.170Z,4.00
2017-12-22T02:08:10.169Z,4.00
2017-12-22T02:09:10.164Z,4.00
2017-12-22T02:10:10.162Z,4.00
2017-12-22T02:11:10.220Z,4.00
2017-12-22T02:12:10.153Z,4.00
2017-12-22T02:13:10.149Z,4.00
2017-12-22T02:14:10.141Z,4.00
2017-12-22T02:15:10.139Z,4.00
2017-12-22T02:16:10.136Z,4.00
2017-12-22T02:17:10.129Z,4.00
2017-12-22T02:18:10.126Z,4.00
2017-12-22T02:19:10.123Z,4.00
2017-12-22T02:20:10.119Z,4.00
2017-12-22T02:21:10.112Z,4.00
2017-12-22T02:22:10.173Z,4.00
2017-12-22T02:23:10.169Z,4.00
2017-12-22T02:24:11.131Z,4.00
2017-12-22T02:25:10.439Z,4.00
2017-12-22T02:26:10.261Z,4.00
2017-12-22T02:27:10.088Z,4.00
2017-12-22T02:28:10.085Z,4.00
2017-12-22T02:29:10.081Z,4.00
2017-12-22T02:30:10.074Z,4.00
2017-12-22T02:31:10.071Z,4.00
2017-12-22T02:32:10.066Z,4.00
2017-12-22T02:33:10.065Z,4.00
2017-12-22T02:34:10.060Z,4.00
2017-12-22T02:35:10.059Z,4.00
2017-12-22T02:36:10.091Z,4.00
2017-12-22T02:37:10.043Z,4.00
2017-12-22T02:38:10.038Z,4.00
2017-12-22T02:39:10.043Z,4.00
2017-12-22T02:40:10.032Z,4.00
2017-12-22T02:41:10.038Z,4.00
2017-12-22T02:42:10.024Z,4.00
2017-12-22T02:43:10.474Z,4.00
2017-12-22T02:44:10.013Z,4.00
2017-12-22T02:45:10.055Z,4.00
2017-12-22T02:46:10.006Z,4.00
2017-12-22T02:47:10.004Z,4.00
2017-12-22T02:48:09.996Z,4.00
2017-12-22T02:49:09.990Z,4.00
2017-12-22T02:50:10.012Z,4.00
2017-12-22T02:51:09.983Z,4.00
2017-12-22T02:52:09.981Z,4.00
2017-12-22T02:53:09.973Z,4.00
2017-12-22T02:54:09.972Z,4.00
2017-12-22T02:55:09.964Z,4.00
2017-12-22T02:56:09.964Z,4.00
2017-12-22T02:57:09.955Z,4.00
2017-12-22T02:58:09.948Z,4.00
2017-12-22T02:59:09.946Z,4.00
2017-12-22T03:00:09.942Z,4.00
2017-12-22T03:01:09.935Z,4.00
2017-12-22T03:02:09.936Z,4.00
2017-12-22T03:03:09.926Z,4.00
2017-12-22T03:04:09.938Z,4.00
2017-12-22T03:05:09.921Z,4.00
2017-12-22T03:06:09.911Z,4.00
2017-12-22T03:07:09.905Z,4.00
2017-12-22T03:08:09.910Z,4.00
2017-12-22T03:09:09.896Z,4.00
2017-12-22T03:10:09.891Z,4.00
2017-12-22T03:11:09.887Z,4.00
2017-12-22T03:12:09.882Z,4.00
2017-12-22T03:13:09.878Z,4.00
2017-12-22T03:14:09.872Z,4.00
2017-12-22T03:15:09.869Z,4.00
2017-12-22T03:16:09.863Z,4.00
2017-12-22T03:17:09.859Z,4.00
2017-12-22T03:18:09.852Z,4.00
2017-12-22T03:19:09.848Z,4.00
2017-12-22T03:20:09.845Z,4.00
2017-12-22T03:21:09.842Z,4.00
2017-12-22T03:22:09.833Z,4.00
2017-12-22T03:23:09.830Z,4.00
2017-12-22T03:24:09.823Z,4.00
2017-12-22T03:25:09.820Z,4.00
2017-12-22T03:26:10.342Z,4.00
2017-12-22T03:27:11.514Z,4.00
2017-12-22T03:28:09.813Z,4.00
2017-12-22T03:29:09.800Z,4.00
2017-12-22T03:30:09.800Z,4.00
2017-12-22T03:31:09.791Z,4.00
2017-12-22T03:32:09.785Z,4.00
2017-12-22T03:33:09.781Z,4.00
2017-12-22T03:34:09.777Z,4.00
2017-12-22T03:35:09.770Z,4.00
2017-12-22T03:36:09.764Z,4.00
2017-12-22T03:37:09.760Z,4.00
2017-12-22T03:38:09.755Z,4.00
2017-12-22T03:39:09.756Z,4.00
2017-12-22T03:40:09.745Z,4.00
2017-12-22T03:41:09.741Z,4.00
2017-12-22T03:42:09.735Z,4.00
2017-12-22T03:43:09.732Z,4.00
2017-12-22T03:44:09.725Z,4.00
2017-12-22T03:45:09.721Z,4.00
2017-12-22T03:46:09.713Z,4.00
2017-12-22T03:47:09.710Z,4.00
2017-12-22T03:48:09.704Z,4.00
2017-12-22T03:49:09.705Z,4.00
2017-12-22T03:50:09.693Z,4.00
2017-12-22T03:51:09.694Z,4.00
2017-12-22T03:52:09.686Z,4.00
2017-12-22T03:53:09.678Z,4.00
2017-12-22T03:54:09.674Z,4.00
2017-12-22T03:55:09.670Z,4.00
2017-12-22T03:56:09.665Z,4.00
2017-12-22T03:57:09.661Z,4.00
2017-12-22T03:58:09.653Z,4.00
2017-12-22T03:59:09.648Z,4.00
2017-12-22T04:00:09.645Z,4.00
2017-12-22T04:01:09.643Z,4.00
2017-12-22T04:02:09.632Z,4.00
2017-12-22T04:03:09.626Z,4.00
2017-12-22T04:04:09.622Z,4.00
2017-12-22T04:05:09.617Z,4.00
2017-12-22T04:06:09.614Z,4.00
2017-12-22T04:07:09.606Z,4.00
2017-12-22T04:08:09.603Z,4.00
2017-12-22T04:09:09.596Z,4.00
2017-12-22T04:10:09.589Z,4.00
2017-12-22T04:11:09.584Z,4.00
2017-12-22T04:12:09.580Z,4.00
2017-12-22T04:13:09.574Z,4.00
2017-12-22T04:14:09.567Z,4.00
2017-12-22T04:15:09.563Z,8.00
2017-12-22T04:16:09.562Z,8.00
2017-12-22T04:17:09.551Z,12.00
2017-12-22T04:18:37.089Z,8.00
2017-12-22T04:19:09.543Z,8.00
2017-12-22T04:20:09.541Z,8.00
2017-12-22T04:21:09.533Z,8.00
2017-12-22T04:22:09.779Z,8.00
2017-12-22T04:23:11.013Z,8.00
2017-12-22T04:24:10.543Z,8.00
2017-12-22T04:25:11.103Z,8.00
2017-12-22T04:26:10.514Z,8.00
2017-12-22T04:27:10.552Z,8.00
2017-12-22T04:28:09.559Z,8.00
2017-12-22T04:29:09.510Z,8.00
2017-12-22T04:30:10.085Z,8.00
2017-12-22T04:31:09.571Z,8.00
2017-12-22T04:32:09.528Z,8.00
2017-12-22T04:33:09.635Z,8.00
2017-12-22T04:34:09.627Z,8.00
2017-12-22T04:35:09.649Z,8.00
2017-12-22T04:36:09.549Z,8.00
2017-12-22T04:37:10.074Z,8.00
2017-12-22T04:38:10.102Z,8.00
2017-12-22T04:39:10.017Z,8.00
2017-12-22T04:40:09.432Z,8.00
2017-12-22T04:41:09.426Z,8.00
2017-12-22T04:42:09.420Z,8.00
2017-12-22T04:43:09.420Z,8.00
2017-12-22T04:44:10.020Z,8.00
2017-12-22T04:45:09.403Z,8.00
2017-12-22T04:46:09.403Z,8.00
2017-12-22T04:47:09.395Z,8.00
2017-12-22T04:48:09.389Z,8.00
2017-12-22T04:49:09.384Z,8.00
2017-12-22T04:50:09.380Z,8.00
2017-12-22T04:51:09.374Z,8.00
2017-12-22T04:52:09.369Z,8.00
2017-12-22T04:53:09.366Z,8.00
2017-12-22T04:54:09.359Z,8.00
2017-12-22T04:55:09.355Z,8.00
2017-12-22T04:56:09.349Z,8.00
2017-12-22T04:57:09.344Z,8.00
2017-12-22T04:58:09.339Z,8.00
2017-12-22T04:59:09.335Z,8.00
2017-12-22T05:00:09.331Z,8.00
2017-12-22T05:01:09.328Z,8.00
2017-12-22T05:02:09.320Z,8.00
2017-12-22T05:03:09.314Z,8.00
2017-12-22T05:04:09.309Z,8.00
2017-12-22T05:05:09.306Z,8.00
2017-12-22T05:06:09.298Z,8.00
2017-12-22T05:07:09.293Z,8.00
2017-12-22T05:08:09.289Z,8.00
2017-12-22T05:09:09.286Z,8.00
2017-12-22T05:10:09.278Z,8.00
2017-12-22T05:11:09.272Z,8.00
2017-12-22T05:12:09.267Z,8.00
2017-12-22T05:13:09.264Z,8.00
2017-12-22T05:14:09.259Z,8.00
2017-12-22T05:15:09.253Z,8.00
2017-12-22T05:16:09.249Z,8.00
2017-12-22T05:17:09.244Z,8.00
2017-12-22T05:18:09.273Z,8.00
2017-12-22T05:19:09.236Z,8.00
2017-12-22T05:20:09.228Z,8.00
2017-12-22T05:21:09.222Z,8.00
2017-12-22T05:22:09.218Z,8.00
2017-12-22T05:23:09.214Z,8.00
2017-12-22T05:24:09.209Z,12.00
2017-12-22T05:25:09.202Z,16.00
2017-12-22T05:26:09.199Z,16.00
2017-12-22T05:27:09.194Z,12.00
2017-12-22T05:28:09.198Z,12.00
2017-12-22T05:29:09.186Z,16.00
2017-12-22T05:30:09.178Z,16.00
2017-12-22T05:31:09.173Z,16.00
2017-12-22T05:32:09.178Z,16.00
2017-12-22T05:33:09.163Z,16.00
2017-12-22T05:34:09.159Z,16.00
2017-12-22T05:35:09.153Z,16.00
2017-12-22T05:36:09.148Z,16.00
2017-12-22T05:37:09.325Z,16.00
2017-12-22T05:38:09.139Z,16.00
2017-12-22T05:39:09.135Z,16.00
2017-12-22T05:40:09.130Z,16.00
2017-12-22T05:41:09.127Z,12.00
2017-12-22T05:42:09.118Z,12.00
2017-12-22T05:43:09.112Z,12.00
2017-12-22T05:44:09.108Z,12.00
2017-12-22T05:45:09.107Z,12.00
2017-12-22T05:46:09.112Z,12.00
2017-12-22T05:47:09.092Z,12.00
2017-12-22T05:48:09.091Z,12.00
2017-12-22T05:49:09.084Z,16.00
2017-12-22T05:50:09.078Z,12.00
2017-12-22T05:51:09.074Z,16.00
2017-12-22T05:52:09.069Z,12.00
2017-12-22T05:53:09.066Z,12.00
2017-12-22T05:54:09.060Z,12.00
2017-12-22T05:55:09.056Z,12.00
2017-12-22T05:56:09.050Z,12.00
2017-12-22T05:57:09.054Z,12.00
2017-12-22T05:58:09.047Z,12.00
2017-12-22T05:59:09.037Z,12.00
2017-12-22T06:00:09.031Z,12.00
2017-12-22T06:01:09.026Z,12.00
2017-12-22T06:02:09.021Z,12.00
2017-12-22T06:03:09.018Z,12.00
2017-12-22T06:04:09.012Z,12.00
2017-12-22T06:05:09.005Z,12.00
2017-12-22T06:06:09.017Z,12.00
2017-12-22T06:07:09.001Z,12.00
2017-12-22T06:08:08.993Z,12.00
2017-12-22T06:09:08.989Z,12.00
2017-12-22T06:10:08.982Z,12.00
2017-12-22T06:11:08.979Z,12.00
2017-12-22T06:12:08.974Z,12.00
2017-12-22T06:13:08.968Z,12.00
2017-12-22T06:14:08.961Z,12.00
2017-12-22T06:15:08.965Z,12.00
2017-12-22T06:16:08.959Z,12.00
2017-12-22T06:17:08.952Z,12.00
2017-12-22T06:18:08.948Z,12.00
2017-12-22T06:19:08.941Z,12.00
2017-12-22T06:20:08.936Z,12.00
2017-12-22T06:21:08.929Z,12.00
2017-12-22T06:22:08.925Z,12.00
2017-12-22T06:23:08.920Z,12.00
2017-12-22T06:24:08.916Z,12.00
2017-12-22T06:25:08.913Z,12.00
2017-12-22T06:26:08.912Z,12.00
2017-12-22T06:27:08.904Z,12.00
2017-12-22T06:28:08.939Z,12.00
2017-12-22T06:29:08.893Z,12.00
2017-12-22T06:30:08.887Z,12.00
2017-12-22T06:31:08.882Z,12.00
2017-12-22T06:32:08.885Z,12.00
2017-12-22T06:33:08.874Z,12.00
2017-12-22T06:34:08.872Z,12.00
2017-12-22T06:35:08.865Z,12.00
2017-12-22T06:36:08.862Z,12.00
2017-12-22T06:37:08.858Z,12.00
2017-12-22T06:38:08.853Z,12.00
2017-12-22T06:39:08.851Z,16.00
2017-12-22T06:40:08.843Z,16.00
2017-12-22T06:41:08.838Z,16.00
2017-12-22T06:42:08.834Z,16.00
2017-12-22T06:43:08.829Z,16.00
2017-12-22T06:44:08.825Z,16.00
2017-12-22T06:45:08.820Z,16.00
2017-12-22T06:46:08.815Z,16.00
2017-12-22T06:47:08.813Z,16.00
2017-12-22T06:48:08.808Z,16.00
2017-12-22T06:49:08.803Z,16.00
2017-12-22T06:50:08.800Z,16.00
2017-12-22T06:51:08.794Z,16.00
2017-12-22T06:52:08.793Z,16.00
2017-12-22T06:53:08.783Z,16.00
2017-12-22T06:54:08.779Z,16.00
2017-12-22T06:55:08.777Z,16.00
2017-12-22T06:56:08.768Z,16.00
2017-12-22T06:57:08.765Z,16.00
2017-12-22T06:58:08.762Z,16.00
2017-12-22T06:59:08.757Z,20.00
2017-12-22T07:00:08.753Z,20.00
2017-12-22T07:01:08.750Z,16.00
2017-12-22T07:02:08.744Z,16.00
2017-12-22T07:03:08.739Z,20.00
2017-12-22T07:04:08.735Z,20.00
2017-12-22T07:05:08.731Z,20.00
2017-12-22T07:06:08.723Z,24.00
2017-12-22T07:07:08.731Z,24.00
2017-12-22T07:08:08.715Z,24.00
2017-12-22T07:09:08.711Z,28.00
2017-12-22T07:10:08.706Z,32.00
2017-12-22T07:11:08.705Z,32.00
2017-12-22T07:12:08.699Z,36.00
2017-12-22T07:13:08.695Z,36.00
2017-12-22T07:14:08.689Z,40.00
2017-12-22T07:15:08.684Z,36.00
2017-12-22T07:16:08.682Z,40.00
2017-12-22T07:17:08.676Z,40.00
2017-12-22T07:18:08.670Z,44.00
2017-12-22T07:19:08.666Z,44.00
2017-12-22T07:20:08.662Z,48.00
2017-12-22T07:21:08.658Z,48.00
2017-12-22T07:22:08.654Z,56.00
2017-12-22T07:23:08.650Z,52.00
2017-12-22T07:24:08.642Z,56.00
2017-12-22T07:25:08.640Z,56.00
2017-12-22T07:26:08.638Z,60.00
2017-12-22T07:27:08.628Z,60.00
2017-12-22T07:28:08.625Z,68.00
2017-12-22T07:29:08.620Z,68.00
2017-12-22T07:30:08.617Z,68.00
2017-12-22T07:31:08.612Z,72.00
2017-12-22T07:32:08.623Z,76.00
2017-12-22T07:33:08.603Z,80.00
2017-12-22T07:34:08.596Z,80.00
2017-12-22T07:35:08.593Z,84.00
2017-12-22T07:36:08.591Z,84.00
2017-12-22T07:37:08.584Z,88.00
2017-12-22T07:38:08.580Z,96.00
2017-12-22T07:39:08.574Z,104.00
2017-12-22T07:40:08.572Z,112.00
2017-12-22T07:41:08.566Z,120.00
2017-12-22T07:42:08.574Z,128.00
2017-12-22T07:43:08.567Z,136.00
2017-12-22T07:44:08.611Z,144.00
2017-12-22T07:45:08.560Z,160.00
2017-12-22T07:46:08.572Z,172.00
2017-12-22T07:47:08.538Z,180.00
2017-12-22T07:48:08.534Z,196.00
2017-12-22T07:49:08.531Z,192.00
2017-12-22T07:50:08.525Z,196.00
2017-12-22T07:51:08.519Z,204.00
2017-12-22T07:52:08.514Z,212.00
2017-12-22T07:53:08.515Z,224.00
2017-12-22T07:54:08.507Z,228.00
2017-12-22T07:55:08.567Z,232.00
2017-12-22T07:56:08.500Z,228.00
2017-12-22T07:57:08.494Z,216.00
2017-12-22T07:58:08.487Z,200.00
2017-12-22T07:59:08.486Z,184.00
2017-12-22T08:00:08.479Z,196.00
2017-12-22T08:01:08.476Z,216.00
2017-12-22T08:02:08.481Z,240.00
2017-12-22T08:03:08.473Z,256.00
2017-12-22T08:04:08.462Z,276.00
2017-12-22T08:05:08.859Z,288.00
2017-12-22T08:06:09.609Z,288.00
2017-12-22T08:07:09.111Z,308.00
2017-12-22T08:08:08.445Z,332.00
2017-12-22T08:09:08.439Z,348.00
2017-12-22T08:10:08.444Z,372.00
2017-12-22T08:11:08.435Z,396.00
2017-12-22T08:12:08.437Z,456.00
2017-12-22T08:13:08.428Z,416.00
2017-12-22T08:14:08.418Z,416.00
2017-12-22T08:15:08.412Z,432.00
2017-12-22T08:16:08.407Z,460.00
2017-12-22T08:17:08.427Z,472.00
2017-12-22T08:18:08.396Z,476.00
2017-12-22T08:19:08.393Z,472.00
2017-12-22T08:20:08.393Z,464.00
2017-12-22T08:21:08.386Z,464.00
2017-12-22T08:22:08.400Z,468.00
2017-12-22T08:23:08.375Z,452.00
2017-12-22T08:24:08.378Z,452.00
2017-12-22T08:25:08.364Z,492.00
2017-12-22T08:26:08.361Z,532.00
2017-12-22T08:27:08.355Z,556.00
2017-12-22T08:28:08.353Z,556.00
2017-12-22T08:29:08.351Z,560.00
2017-12-22T08:30:08.342Z,568.00
2017-12-22T08:31:08.338Z,576.00
2017-12-22T08:32:08.339Z,580.00
2017-12-22T08:33:08.341Z,588.00
2017-12-22T08:34:08.326Z,592.00
2017-12-22T08:35:08.322Z,592.00
2017-12-22T08:36:08.319Z,600.00
2017-12-22T08:37:08.312Z,596.00
2017-12-22T08:38:08.320Z,604.00
2017-12-22T08:39:08.302Z,624.00
2017-12-22T08:40:08.298Z,636.00
2017-12-22T08:41:08.298Z,644.00
2017-12-22T08:42:08.292Z,660.00
2017-12-22T08:43:08.284Z,668.00
2017-12-22T08:44:08.284Z,672.00
2017-12-22T08:45:08.277Z,680.00
2017-12-22T08:46:08.271Z,688.00
2017-12-22T08:47:08.267Z,696.00
2017-12-22T08:48:08.262Z,704.00
2017-12-22T08:49:08.257Z,716.00
2017-12-22T08:50:08.251Z,724.00
2017-12-22T08:51:08.249Z,732.00
2017-12-22T08:52:08.243Z,728.00
2017-12-22T08:53:08.238Z,728.00
2017-12-22T08:54:08.254Z,728.00
2017-12-22T08:55:08.263Z,736.00
2017-12-22T08:56:08.226Z,744.00
2017-12-22T08:57:08.222Z,752.00
2017-12-22T08:58:08.219Z,756.00
2017-12-22T08:59:08.214Z,764.00
2017-12-22T09:00:08.232Z,768.00
2017-12-22T09:01:08.244Z,764.00
2017-12-22T09:02:08.201Z,768.00
2017-12-22T09:03:08.196Z,764.00
2017-12-22T09:04:08.189Z,760.00
2017-12-22T09:05:08.192Z,756.00
2017-12-22T09:06:08.182Z,764.00
2017-12-22T09:07:08.178Z,772.00
2017-12-22T09:08:08.176Z,792.00
2017-12-22T09:09:08.173Z,800.00
2017-12-22T09:10:08.165Z,808.00
2017-12-22T09:11:08.162Z,812.00
2017-12-22T09:12:08.162Z,820.00
2017-12-22T09:13:08.154Z,828.00
2017-12-22T09:14:08.152Z,832.00
2017-12-22T09:15:08.146Z,828.00
2017-12-22T09:16:08.142Z,828.00
2017-12-22T09:17:08.138Z,824.00
2017-12-22T09:18:08.133Z,820.00
2017-12-22T09:19:08.160Z,820.00
2017-12-22T09:20:08.125Z,816.00
2017-12-22T09:21:08.137Z,808.00
2017-12-22T09:22:08.120Z,796.00
2017-12-22T09:23:08.111Z,784.00
2017-12-22T09:24:08.106Z,768.00
2017-12-22T09:25:08.108Z,760.00
2017-12-22T09:26:08.100Z,752.00
2017-12-22T09:27:08.098Z,756.00
2017-12-22T09:28:08.110Z,792.00
2017-12-22T09:29:08.089Z,788.00
2017-12-22T09:30:08.106Z,784.00
2017-12-22T09:31:08.083Z,756.00
2017-12-22T09:32:08.077Z,764.00
2017-12-22T09:33:08.072Z,772.00
2017-12-22T09:34:08.071Z,780.00
2017-12-22T09:35:08.062Z,800.00
2017-12-22T09:36:08.060Z,824.00
2017-12-22T09:37:08.055Z,852.00
2017-12-22T09:38:08.051Z,880.00
2017-12-22T09:39:08.052Z,908.00
2017-12-22T09:40:08.042Z,932.00
2017-12-22T09:41:08.042Z,968.00
2017-12-22T09:42:08.033Z,1000.00
2017-12-22T09:43:08.029Z,1036.00
2017-12-22T09:44:08.027Z,1048.00
2017-12-22T09:45:08.023Z,1060.00
2017-12-22T09:46:08.016Z,1084.00
2017-12-22T09:47:08.015Z,1120.00
2017-12-22T09:48:08.017Z,1124.00
2017-12-22T09:49:08.011Z,1140.00
2017-12-22T09:50:08.002Z,1160.00
2017-12-22T09:51:07.995Z,1208.00
2017-12-22T09:52:07.994Z,1216.00
2017-12-22T09:53:07.991Z,1248.00
2017-12-22T09:54:07.983Z,1232.00
2017-12-22T09:55:07.983Z,1240.00
2017-12-22T09:56:07.979Z,1244.00
2017-12-22T09:57:07.988Z,1256.00
2017-12-22T09:58:07.967Z,1264.00
2017-12-22T09:59:07.968Z,1244.00
2017-12-22T10:00:07.960Z,1252.00
2017-12-22T10:01:07.957Z,1264.00
2017-12-22T10:02:07.960Z,1264.00
2017-12-22T10:03:07.952Z,1280.00
2017-12-22T10:04:07.946Z,1248.00
2017-12-22T10:05:07.942Z,1220.00
2017-12-22T10:06:07.934Z,1212.00
2017-12-22T10:07:07.951Z,1204.00
2017-12-22T10:08:07.930Z,1200.00
2017-12-22T10:09:07.924Z,1196.00
2017-12-22T10:10:08.014Z,1184.00
2017-12-22T10:11:07.917Z,1192.00
2017-12-22T10:12:07.912Z,1220.00
2017-12-22T10:13:07.912Z,1232.00
2017-12-22T10:14:07.903Z,1248.00
2017-12-22T10:15:07.901Z,1252.00
2017-12-22T10:16:07.901Z,1264.00
2017-12-22T10:17:07.895Z,1296.00
2017-12-22T10:18:07.890Z,1316.00
2017-12-22T10:19:07.886Z,1316.00
2017-12-22T10:20:07.881Z,1304.00
2017-12-22T10:21:07.899Z,1260.00
2017-12-22T10:22:07.872Z,1228.00
2017-12-22T10:23:07.879Z,1200.00
2017-12-22T10:24:07.865Z,1176.00
2017-12-22T10:25:07.863Z,1164.00
2017-12-22T10:26:07.860Z,1148.00
2017-12-22T10:27:07.858Z,1132.00
2017-12-22T10:28:07.851Z,1120.00
2017-12-22T10:29:07.850Z,1116.00
2017-12-22T10:30:07.844Z,1104.00
2017-12-22T10:31:07.842Z,1076.00
2017-12-22T10:32:07.837Z,1052.00
2017-12-22T10:33:07.833Z,1024.00
2017-12-22T10:34:07.842Z,1004.00
2017-12-22T10:35:07.827Z,992.00
2017-12-22T10:36:07.821Z,996.00
2017-12-22T10:37:07.820Z,1008.00
2017-12-22T10:38:07.815Z,1044.00
2017-12-22T10:39:07.816Z,1076.00
2017-12-22T10:40:07.810Z,1100.00
2017-12-22T10:41:07.807Z,1124.00
2017-12-22T10:42:07.818Z,1140.00
2017-12-22T10:43:07.800Z,1132.00
2017-12-22T10:44:07.797Z,1140.00
2017-12-22T10:45:07.791Z,1168.00
2017-12-22T10:46:07.788Z,1212.00
2017-12-22T10:47:07.785Z,1260.00
2017-12-22T10:48:07.791Z,1292.00
2017-12-22T10:49:07.780Z,1292.00
2017-12-22T10:50:07.773Z,1272.00
2017-12-22T10:51:07.773Z,1264.00
2017-12-22T10:52:07.773Z,1288.00
2017-12-22T10:53:07.766Z,1332.00
2017-12-22T10:54:07.762Z,1392.00
2017-12-22T10:55:07.762Z,1616.00
2017-12-22T10:56:07.764Z,1504.00
2017-12-22T10:57:07.750Z,1504.00
2017-12-22T10:58:07.749Z,1504.00
2017-12-22T10:59:07.748Z,1456.00
2017-12-22T11:00:07.762Z,1384.00
2017-12-22T11:01:07.739Z,1328.00
2017-12-22T11:02:07.737Z,1308.00
2017-12-22T11:03:07.740Z,1296.00
2017-12-22T11:04:07.736Z,1308.00
2017-12-22T11:05:07.728Z,1332.00
2017-12-22T11:06:07.726Z,1380.00
2017-12-22T11:07:07.723Z,1444.00
2017-12-22T11:08:07.718Z,1476.00
2017-12-22T11:09:07.715Z,1448.00
2017-12-22T11:10:07.711Z,1368.00
2017-12-22T11:11:07.708Z,1304.00
2017-12-22T11:12:07.707Z,1264.00
2017-12-22T11:13:07.706Z,1268.00
2017-12-22T11:14:07.701Z,1284.00
2017-12-22T11:15:07.733Z,1280.00
2017-12-22T11:16:07.697Z,1268.00
2017-12-22T11:17:07.701Z,1236.00
2017-12-22T11:18:07.689Z,1220.00
2017-12-22T11:19:07.689Z,1140.00
2017-12-22T11:20:07.683Z,1120.00
2017-12-22T11:21:07.682Z,1084.00
2017-12-22T11:22:07.690Z,1052.00
2017-12-22T11:23:07.676Z,1040.00
2017-12-22T11:24:07.674Z,1024.00
2017-12-22T11:25:07.671Z,1024.00
2017-12-22T11:26:07.678Z,1056.00
2017-12-22T11:27:07.663Z,1024.00
2017-12-22T11:28:07.668Z,1016.00
2017-12-22T11:29:07.660Z,996.00
2017-12-22T11:30:07.656Z,992.00
2017-12-22T11:31:07.658Z,1012.00
2017-12-22T11:32:07.651Z,1048.00
2017-12-22T11:33:07.650Z,1104.00
2017-12-22T11:34:07.651Z,1156.00
2017-12-22T11:35:07.642Z,1216.00
2017-12-22T11:36:07.643Z,1284.00
2017-12-22T11:37:07.640Z,1356.00
2017-12-22T11:38:07.633Z,1416.00
2017-12-22T11:39:07.641Z,1448.00
2017-12-22T11:40:07.637Z,1460.00
2017-12-22T11:41:07.626Z,1408.00
2017-12-22T11:42:07.636Z,1316.00
2017-12-22T11:43:07.626Z,1224.00
2017-12-22T11:44:07.616Z,1156.00
2017-12-22T11:45:07.639Z,1040.00
2017-12-22T11:46:07.611Z,904.00
2017-12-22T11:47:07.609Z,796.00
2017-12-22T11:48:07.608Z,708.00
2017-12-22T11:49:07.604Z,632.00
2017-12-22T11:50:07.600Z,564.00
2017-12-22T11:51:07.600Z,528.00
2017-12-22T11:52:07.594Z,524.00
2017-12-22T11:53:07.593Z,524.00
2017-12-22T11:54:07.615Z,484.00
2017-12-22T11:55:07.587Z,460.00
2017-12-22T11:56:07.584Z,460.00
2017-12-22T11:57:07.582Z,464.00
2017-12-22T11:58:07.577Z,476.00
2017-12-22T11:59:07.575Z,484.00
2017-12-22T12:00:07.576Z,508.00
2017-12-22T12:01:07.578Z,532.00
2017-12-22T12:02:07.567Z,564.00
2017-12-22T12:03:07.567Z,572.00
2017-12-22T12:04:07.558Z,604.00
2017-12-22T12:05:07.603Z,656.00
2017-12-22T12:06:07.603Z,692.00
2017-12-22T12:07:07.549Z,704.00
2017-12-22T12:08:07.549Z,720.00
2017-12-22T12:09:07.543Z,728.00
2017-12-22T12:10:07.544Z,728.00
2017-12-22T12:11:07.546Z,728.00
2017-12-22T12:12:07.532Z,728.00
2017-12-22T12:13:07.532Z,728.00
2017-12-22T12:14:07.527Z,720.00
2017-12-22T12:15:07.523Z,740.00
2017-12-22T12:16:07.520Z,728.00
2017-12-22T12:17:07.518Z,732.00
2017-12-22T12:18:07.516Z,740.00
2017-12-22T12:19:07.601Z,744.00
2017-12-22T12:20:07.513Z,740.00
2017-12-22T12:21:07.506Z,752.00
2017-12-22T12:22:07.500Z,744.00
2017-12-22T12:23:07.501Z,744.00
2017-12-22T12:24:07.494Z,748.00
2017-12-22T12:25:07.495Z,736.00
2017-12-22T12:26:07.501Z,748.00
2017-12-22T12:27:07.484Z,760.00
2017-12-22T12:28:07.480Z,760.00
2017-12-22T12:29:07.477Z,760.00
2017-12-22T12:30:07.474Z,760.00
2017-12-22T12:31:07.472Z,744.00
2017-12-22T12:32:07.468Z,764.00
2017-12-22T12:33:07.462Z,788.00
2017-12-22T12:34:07.460Z,816.00
2017-12-22T12:35:07.455Z,820.00
2017-12-22T12:36:07.452Z,832.00
2017-12-22T12:37:07.448Z,868.00
2017-12-22T12:38:07.445Z,932.00
2017-12-22T12:39:07.443Z,968.00
2017-12-22T12:40:07.441Z,964.00
2017-12-22T12:41:07.434Z,968.00
2017-12-22T12:42:07.430Z,1020.00
2017-12-22T12:43:07.429Z,1032.00
2017-12-22T12:44:07.426Z,1224.00
2017-12-22T12:45:07.421Z,1288.00
2017-12-22T12:46:07.418Z,1184.00
2017-12-22T12:47:07.414Z,1116.00
2017-12-22T12:48:07.409Z,1244.00